sensor_id;sensor_type;location;lat;lon;timestamp;P1;durP1;ratioP1;P2;durP2;ratioP2
13329;SDS011;6734;48.638;8.896;2022-12-19T00:02:07;59.23;;;28.13;;
13329;SDS011;6734;48.638;8.896;2022-12-19T00:04:33;49.53;;;22.77;;
13329;SDS011;6734;48.638;8.896;2022-12-19T00:06:59;56.47;;;25.40;;
13329;SDS011;6734;48.638;8.896;2022-12-19T00:09:25;54.43;;;24.07;;
13329;SDS011;6734;48.638;8.896;2022-12-19T00:11:51;56.73;;;24.53;;
13329;SDS011;6734;48.638;8.896;2022-12-19T00:14:17;53.40;;;23.23;;
13329;SDS011;6734;48.638;8.896;2022-12-19T00:16:43;51.90;;;21.73;;
13329;SDS011;6734;48.638;8.896;2022-12-19T00:19:09;54.70;;;24.17;;
13329;SDS011;6734;48.638;8.896;2022-12-19T00:21:35;55.00;;;24.90;;
13329;SDS011;6734;48.638;8.896;2022-12-19T00:24:02;47.63;;;21.90;;
13329;SDS011;6734;48.638;8.896;2022-12-19T00:26:30;43.80;;;21.23;;
13329;SDS011;6734;48.638;8.896;2022-12-19T00:28:58;42.00;;;19.17;;
13329;SDS011;6734;48.638;8.896;2022-12-19T00:31:26;47.77;;;22.43;;
13329;SDS011;6734;48.638;8.896;2022-12-19T00:33:53;51.93;;;25.17;;
13329;SDS011;6734;48.638;8.896;2022-12-19T00:36:23;41.70;;;18.33;;
13329;SDS011;6734;48.638;8.896;2022-12-19T00:38:51;47.57;;;21.30;;
13329;SDS011;6734;48.638;8.896;2022-12-19T00:41:22;48.27;;;23.90;;
13329;SDS011;6734;48.638;8.896;2022-12-19T00:43:52;51.87;;;23.37;;
13329;SDS011;6734;48.638;8.896;2022-12-19T00:46:18;42.63;;;19.83;;
13329;SDS011;6734;48.638;8.896;2022-12-19T00:48:44;54.47;;;24.77;;
13329;SDS011;6734;48.638;8.896;2022-12-19T00:51:13;41.83;;;19.50;;
13329;SDS011;6734;48.638;8.896;2022-12-19T00:53:44;54.73;;;24.53;;
13329;SDS011;6734;48.638;8.896;2022-12-19T00:56:12;54.53;;;22.50;;
13329;SDS011;6734;48.638;8.896;2022-12-19T00:58:40;59.80;;;24.80;;
13329;SDS011;6734;48.638;8.896;2022-12-19T01:01:11;49.90;;;23.27;;
13329;SDS011;6734;48.638;8.896;2022-12-19T01:03:38;50.20;;;25.23;;
13329;SDS011;6734;48.638;8.896;2022-12-19T01:06:03;55.17;;;25.40;;
13329;SDS011;6734;48.638;8.896;2022-12-19T01:08:29;49.33;;;24.93;;
13329;SDS011;6734;48.638;8.896;2022-12-19T01:10:55;47.27;;;21.63;;
13329;SDS011;6734;48.638;8.896;2022-12-19T01:13:21;54.70;;;24.47;;
13329;SDS011;6734;48.638;8.896;2022-12-19T01:15:48;45.50;;;22.07;;
13329;SDS011;6734;48.638;8.896;2022-12-19T01:18:14;53.87;;;23.33;;
13329;SDS011;6734;48.638;8.896;2022-12-19T01:20:40;50.87;;;23.17;;
13329;SDS011;6734;48.638;8.896;2022-12-19T01:23:07;48.60;;;24.37;;
13329;SDS011;6734;48.638;8.896;2022-12-19T01:25:34;50.93;;;23.37;;
13329;SDS011;6734;48.638;8.896;2022-12-19T01:28:01;47.77;;;19.80;;
13329;SDS011;6734;48.638;8.896;2022-12-19T01:30:27;54.63;;;24.73;;
13329;SDS011;6734;48.638;8.896;2022-12-19T01:32:53;59.57;;;25.13;;
13329;SDS011;6734;48.638;8.896;2022-12-19T01:35:20;55.23;;;24.17;;
13329;SDS011;6734;48.638;8.896;2022-12-19T01:37:46;51.77;;;24.10;;
13329;SDS011;6734;48.638;8.896;2022-12-19T01:40:12;56.40;;;23.93;;
13329;SDS011;6734;48.638;8.896;2022-12-19T01:42:38;55.60;;;24.80;;
13329;SDS011;6734;48.638;8.896;2022-12-19T01:50:36;51.23;;;22.47;;
13329;SDS011;6734;48.638;8.896;2022-12-19T01:53:08;50.20;;;23.23;;
13329;SDS011;6734;48.638;8.896;2022-12-19T01:55:35;58.00;;;24.57;;
13329;SDS011;6734;48.638;8.896;2022-12-19T01:58:03;52.30;;;23.90;;
13329;SDS011;6734;48.638;8.896;2022-12-19T02:00:29;50.10;;;23.90;;
13329;SDS011;6734;48.638;8.896;2022-12-19T02:03:04;55.03;;;24.93;;
13329;SDS011;6734;48.638;8.896;2022-12-19T02:05:38;48.00;;;23.57;;
13329;SDS011;6734;48.638;8.896;2022-12-19T02:08:04;51.47;;;24.17;;
13329;SDS011;6734;48.638;8.896;2022-12-19T02:10:31;52.13;;;24.67;;
13329;SDS011;6734;48.638;8.896;2022-12-19T02:12:56;59.60;;;27.80;;
13329;SDS011;6734;48.638;8.896;2022-12-19T02:15:23;65.63;;;29.13;;
13329;SDS011;6734;48.638;8.896;2022-12-19T02:32:13;56.77;;;25.23;;
13329;SDS011;6734;48.638;8.896;2022-12-19T02:34:44;51.67;;;23.83;;
13329;SDS011;6734;48.638;8.896;2022-12-19T02:37:27;61.40;;;25.97;;
13329;SDS011;6734;48.638;8.896;2022-12-19T02:42:44;57.97;;;24.23;;
13329;SDS011;6734;48.638;8.896;2022-12-19T02:45:14;53.33;;;23.17;;
13329;SDS011;6734;48.638;8.896;2022-12-19T02:47:43;53.30;;;24.07;;
13329;SDS011;6734;48.638;8.896;2022-12-19T02:50:09;56.20;;;24.07;;
13329;SDS011;6734;48.638;8.896;2022-12-19T02:55:03;43.17;;;20.73;;
13329;SDS011;6734;48.638;8.896;2022-12-19T03:00:12;50.87;;;21.37;;
13329;SDS011;6734;48.638;8.896;2022-12-19T03:08:24;58.13;;;25.30;;
13329;SDS011;6734;48.638;8.896;2022-12-19T03:11:01;50.30;;;22.57;;
13329;SDS011;6734;48.638;8.896;2022-12-19T03:13:34;49.63;;;22.77;;
13329;SDS011;6734;48.638;8.896;2022-12-19T03:16:24;52.63;;;22.90;;
13329;SDS011;6734;48.638;8.896;2022-12-19T03:18:51;51.87;;;22.10;;
13329;SDS011;6734;48.638;8.896;2022-12-19T03:21:37;55.77;;;26.27;;
13329;SDS011;6734;48.638;8.896;2022-12-19T03:24:08;62.43;;;27.17;;
13329;SDS011;6734;48.638;8.896;2022-12-19T03:29:31;58.03;;;25.37;;
13329;SDS011;6734;48.638;8.896;2022-12-19T03:32:00;55.93;;;24.73;;
13329;SDS011;6734;48.638;8.896;2022-12-19T03:34:37;56.73;;;23.97;;
13329;SDS011;6734;48.638;8.896;2022-12-19T03:37:06;54.83;;;25.40;;
13329;SDS011;6734;48.638;8.896;2022-12-19T03:39:37;50.23;;;21.93;;
13329;SDS011;6734;48.638;8.896;2022-12-19T03:42:06;47.03;;;23.23;;
13329;SDS011;6734;48.638;8.896;2022-12-19T03:44:52;51.27;;;22.20;;
13329;SDS011;6734;48.638;8.896;2022-12-19T03:49:50;52.00;;;23.87;;
13329;SDS011;6734;48.638;8.896;2022-12-19T03:52:32;46.63;;;21.07;;
13329;SDS011;6734;48.638;8.896;2022-12-19T03:57:45;53.77;;;23.50;;
13329;SDS011;6734;48.638;8.896;2022-12-19T04:00:17;53.33;;;23.50;;
13329;SDS011;6734;48.638;8.896;2022-12-19T04:02:45;50.10;;;23.47;;
13329;SDS011;6734;48.638;8.896;2022-12-19T04:05:17;55.47;;;24.07;;
13329;SDS011;6734;48.638;8.896;2022-12-19T04:07:45;57.73;;;24.87;;
13329;SDS011;6734;48.638;8.896;2022-12-19T04:10:14;55.77;;;25.37;;
13329;SDS011;6734;48.638;8.896;2022-12-19T04:12:46;52.80;;;24.40;;
13329;SDS011;6734;48.638;8.896;2022-12-19T04:15:16;53.70;;;23.23;;
13329;SDS011;6734;48.638;8.896;2022-12-19T04:17:43;52.20;;;24.73;;
13329;SDS011;6734;48.638;8.896;2022-12-19T04:20:15;55.70;;;23.77;;
13329;SDS011;6734;48.638;8.896;2022-12-19T04:22:55;50.80;;;22.73;;
13329;SDS011;6734;48.638;8.896;2022-12-19T04:25:29;45.63;;;20.30;;
13329;SDS011;6734;48.638;8.896;2022-12-19T04:27:59;45.27;;;21.40;;
13329;SDS011;6734;48.638;8.896;2022-12-19T04:30:32;54.37;;;21.90;;
13329;SDS011;6734;48.638;8.896;2022-12-19T04:32:58;48.93;;;21.67;;
13329;SDS011;6734;48.638;8.896;2022-12-19T04:35:24;55.73;;;23.50;;
13329;SDS011;6734;48.638;8.896;2022-12-19T04:37:50;51.67;;;25.77;;
13329;SDS011;6734;48.638;8.896;2022-12-19T04:40:16;51.90;;;24.87;;
13329;SDS011;6734;48.638;8.896;2022-12-19T04:42:42;53.37;;;24.97;;
13329;SDS011;6734;48.638;8.896;2022-12-19T04:45:08;52.67;;;22.97;;
13329;SDS011;6734;48.638;8.896;2022-12-19T04:47:34;54.60;;;23.90;;
13329;SDS011;6734;48.638;8.896;2022-12-19T04:50:00;55.67;;;24.27;;
13329;SDS011;6734;48.638;8.896;2022-12-19T04:52:26;52.37;;;25.77;;
13329;SDS011;6734;48.638;8.896;2022-12-19T04:54:51;54.50;;;24.73;;
13329;SDS011;6734;48.638;8.896;2022-12-19T04:57:17;57.90;;;24.53;;
13329;SDS011;6734;48.638;8.896;2022-12-19T04:59:43;52.60;;;23.70;;
13329;SDS011;6734;48.638;8.896;2022-12-19T05:02:09;54.87;;;23.90;;
13329;SDS011;6734;48.638;8.896;2022-12-19T05:04:34;54.27;;;22.00;;
13329;SDS011;6734;48.638;8.896;2022-12-19T05:07:00;59.97;;;24.93;;
13329;SDS011;6734;48.638;8.896;2022-12-19T05:09:25;54.10;;;23.67;;
13329;SDS011;6734;48.638;8.896;2022-12-19T05:11:51;50.83;;;24.37;;
13329;SDS011;6734;48.638;8.896;2022-12-19T05:14:16;58.63;;;26.37;;
13329;SDS011;6734;48.638;8.896;2022-12-19T05:16:42;58.87;;;27.57;;
13329;SDS011;6734;48.638;8.896;2022-12-19T05:19:08;63.70;;;25.90;;
13329;SDS011;6734;48.638;8.896;2022-12-19T05:21:34;65.10;;;26.17;;
13329;SDS011;6734;48.638;8.896;2022-12-19T05:24:00;61.27;;;24.93;;
13329;SDS011;6734;48.638;8.896;2022-12-19T05:26:25;55.33;;;23.33;;
13329;SDS011;6734;48.638;8.896;2022-12-19T05:28:51;63.77;;;24.73;;
13329;SDS011;6734;48.638;8.896;2022-12-19T05:31:18;59.43;;;26.37;;
13329;SDS011;6734;48.638;8.896;2022-12-19T05:33:45;62.13;;;25.17;;
13329;SDS011;6734;48.638;8.896;2022-12-19T05:36:13;62.70;;;27.57;;
13329;SDS011;6734;48.638;8.896;2022-12-19T05:38:40;58.20;;;26.37;;
13329;SDS011;6734;48.638;8.896;2022-12-19T05:41:10;64.00;;;25.77;;
13329;SDS011;6734;48.638;8.896;2022-12-19T05:43:38;64.73;;;26.03;;
13329;SDS011;6734;48.638;8.896;2022-12-19T05:46:04;59.63;;;24.83;;
13329;SDS011;6734;48.638;8.896;2022-12-19T05:48:30;58.93;;;27.23;;
13329;SDS011;6734;48.638;8.896;2022-12-19T05:50:55;58.17;;;25.63;;
13329;SDS011;6734;48.638;8.896;2022-12-19T05:53:21;56.40;;;25.67;;
13329;SDS011;6734;48.638;8.896;2022-12-19T05:55:46;63.53;;;27.23;;
13329;SDS011;6734;48.638;8.896;2022-12-19T05:58:12;64.63;;;27.50;;
13329;SDS011;6734;48.638;8.896;2022-12-19T06:00:38;56.53;;;25.57;;
13329;SDS011;6734;48.638;8.896;2022-12-19T06:03:03;56.70;;;26.70;;
13329;SDS011;6734;48.638;8.896;2022-12-19T06:05:30;61.03;;;25.87;;
13329;SDS011;6734;48.638;8.896;2022-12-19T06:07:56;55.87;;;25.60;;
13329;SDS011;6734;48.638;8.896;2022-12-19T06:10:21;56.93;;;24.80;;
13329;SDS011;6734;48.638;8.896;2022-12-19T06:12:47;61.67;;;25.37;;
13329;SDS011;6734;48.638;8.896;2022-12-19T06:15:13;56.87;;;25.07;;
13329;SDS011;6734;48.638;8.896;2022-12-19T06:17:38;60.73;;;25.30;;
13329;SDS011;6734;48.638;8.896;2022-12-19T06:20:04;55.10;;;23.50;;
13329;SDS011;6734;48.638;8.896;2022-12-19T06:22:30;69.70;;;27.97;;
13329;SDS011;6734;48.638;8.896;2022-12-19T06:24:57;60.57;;;26.00;;
13329;SDS011;6734;48.638;8.896;2022-12-19T06:27:23;60.93;;;26.03;;
13329;SDS011;6734;48.638;8.896;2022-12-19T06:29:49;55.93;;;24.43;;
13329;SDS011;6734;48.638;8.896;2022-12-19T06:32:15;61.10;;;25.17;;
13329;SDS011;6734;48.638;8.896;2022-12-19T06:34:40;62.87;;;26.73;;
13329;SDS011;6734;48.638;8.896;2022-12-19T06:37:06;53.50;;;23.33;;
13329;SDS011;6734;48.638;8.896;2022-12-19T06:39:32;59.60;;;24.90;;
13329;SDS011;6734;48.638;8.896;2022-12-19T06:41:57;57.23;;;24.83;;
13329;SDS011;6734;48.638;8.896;2022-12-19T06:44:42;56.60;;;23.80;;
13329;SDS011;6734;48.638;8.896;2022-12-19T06:47:08;54.27;;;23.87;;
13329;SDS011;6734;48.638;8.896;2022-12-19T06:49:33;59.57;;;25.03;;
13329;SDS011;6734;48.638;8.896;2022-12-19T06:51:59;55.57;;;23.93;;
13329;SDS011;6734;48.638;8.896;2022-12-19T06:54:25;57.20;;;24.57;;
13329;SDS011;6734;48.638;8.896;2022-12-19T06:56:50;52.03;;;23.10;;
13329;SDS011;6734;48.638;8.896;2022-12-19T06:59:16;54.23;;;23.33;;
13329;SDS011;6734;48.638;8.896;2022-12-19T07:04:27;54.23;;;24.43;;
13329;SDS011;6734;48.638;8.896;2022-12-19T07:06:56;62.93;;;25.83;;
13329;SDS011;6734;48.638;8.896;2022-12-19T07:09:22;62.27;;;26.93;;
13329;SDS011;6734;48.638;8.896;2022-12-19T07:11:49;59.30;;;27.10;;
13329;SDS011;6734;48.638;8.896;2022-12-19T07:14:15;56.77;;;25.97;;
13329;SDS011;6734;48.638;8.896;2022-12-19T07:16:41;57.90;;;25.70;;
13329;SDS011;6734;48.638;8.896;2022-12-19T07:19:07;63.57;;;26.03;;
13329;SDS011;6734;48.638;8.896;2022-12-19T07:21:33;57.50;;;25.13;;
13329;SDS011;6734;48.638;8.896;2022-12-19T07:23:59;55.47;;;22.37;;
13329;SDS011;6734;48.638;8.896;2022-12-19T07:26:26;59.20;;;23.93;;
13329;SDS011;6734;48.638;8.896;2022-12-19T07:28:52;51.43;;;23.40;;
13329;SDS011;6734;48.638;8.896;2022-12-19T07:31:18;58.33;;;24.83;;
13329;SDS011;6734;48.638;8.896;2022-12-19T07:33:44;53.53;;;22.40;;
13329;SDS011;6734;48.638;8.896;2022-12-19T07:36:09;56.37;;;22.50;;
13329;SDS011;6734;48.638;8.896;2022-12-19T07:38:35;51.07;;;22.97;;
13329;SDS011;6734;48.638;8.896;2022-12-19T07:41:01;57.87;;;23.90;;
13329;SDS011;6734;48.638;8.896;2022-12-19T07:43:27;51.90;;;23.13;;
13329;SDS011;6734;48.638;8.896;2022-12-19T07:45:53;52.80;;;23.80;;
13329;SDS011;6734;48.638;8.896;2022-12-19T07:48:19;60.90;;;24.27;;
13329;SDS011;6734;48.638;8.896;2022-12-19T07:50:45;52.63;;;22.73;;
13329;SDS011;6734;48.638;8.896;2022-12-19T07:53:11;55.80;;;23.03;;
13329;SDS011;6734;48.638;8.896;2022-12-19T07:55:37;58.87;;;24.80;;
13329;SDS011;6734;48.638;8.896;2022-12-19T07:58:03;55.83;;;25.13;;
13329;SDS011;6734;48.638;8.896;2022-12-19T08:00:28;60.37;;;24.97;;
13329;SDS011;6734;48.638;8.896;2022-12-19T08:02:55;64.17;;;27.93;;
13329;SDS011;6734;48.638;8.896;2022-12-19T08:05:25;56.17;;;26.33;;
13329;SDS011;6734;48.638;8.896;2022-12-19T08:07:50;56.80;;;25.23;;
13329;SDS011;6734;48.638;8.896;2022-12-19T08:10:16;69.50;;;28.40;;
13329;SDS011;6734;48.638;8.896;2022-12-19T08:12:43;61.47;;;25.20;;
13329;SDS011;6734;48.638;8.896;2022-12-19T08:15:08;53.67;;;25.63;;
13329;SDS011;6734;48.638;8.896;2022-12-19T08:17:34;60.43;;;26.57;;
13329;SDS011;6734;48.638;8.896;2022-12-19T08:20:00;65.03;;;26.93;;
13329;SDS011;6734;48.638;8.896;2022-12-19T08:22:27;59.90;;;26.17;;
13329;SDS011;6734;48.638;8.896;2022-12-19T08:24:54;63.67;;;26.57;;
13329;SDS011;6734;48.638;8.896;2022-12-19T08:27:20;72.00;;;29.03;;
13329;SDS011;6734;48.638;8.896;2022-12-19T08:29:46;66.10;;;27.53;;
13329;SDS011;6734;48.638;8.896;2022-12-19T08:32:13;64.97;;;28.83;;
13329;SDS011;6734;48.638;8.896;2022-12-19T08:34:39;69.37;;;28.60;;
13329;SDS011;6734;48.638;8.896;2022-12-19T08:37:05;66.47;;;27.77;;
13329;SDS011;6734;48.638;8.896;2022-12-19T08:39:30;68.57;;;28.53;;
13329;SDS011;6734;48.638;8.896;2022-12-19T08:41:56;71.63;;;28.30;;
13329;SDS011;6734;48.638;8.896;2022-12-19T08:44:22;67.63;;;27.13;;
13329;SDS011;6734;48.638;8.896;2022-12-19T08:46:48;66.63;;;27.03;;
13329;SDS011;6734;48.638;8.896;2022-12-19T08:49:14;61.47;;;27.70;;
13329;SDS011;6734;48.638;8.896;2022-12-19T08:51:39;61.50;;;26.67;;
13329;SDS011;6734;48.638;8.896;2022-12-19T08:54:05;54.53;;;25.40;;
13329;SDS011;6734;48.638;8.896;2022-12-19T08:56:31;60.07;;;25.63;;
13329;SDS011;6734;48.638;8.896;2022-12-19T08:58:57;68.30;;;28.13;;
13329;SDS011;6734;48.638;8.896;2022-12-19T09:01:22;59.60;;;26.77;;
13329;SDS011;6734;48.638;8.896;2022-12-19T09:03:49;58.83;;;26.33;;
13329;SDS011;6734;48.638;8.896;2022-12-19T09:06:15;63.83;;;30.17;;
13329;SDS011;6734;48.638;8.896;2022-12-19T09:08:41;62.13;;;27.27;;
13329;SDS011;6734;48.638;8.896;2022-12-19T09:11:08;66.80;;;29.47;;
13329;SDS011;6734;48.638;8.896;2022-12-19T09:13:44;53.03;;;24.07;;
13329;SDS011;6734;48.638;8.896;2022-12-19T09:18:40;61.07;;;29.60;;
13329;SDS011;6734;48.638;8.896;2022-12-19T09:21:08;51.40;;;24.47;;
13329;SDS011;6734;48.638;8.896;2022-12-19T09:23:33;53.30;;;27.33;;
13329;SDS011;6734;48.638;8.896;2022-12-19T09:26:03;48.60;;;24.27;;
13329;SDS011;6734;48.638;8.896;2022-12-19T09:28:31;40.27;;;21.80;;
13329;SDS011;6734;48.638;8.896;2022-12-19T09:30:58;47.90;;;22.53;;
13329;SDS011;6734;48.638;8.896;2022-12-19T09:33:25;46.73;;;24.03;;
13329;SDS011;6734;48.638;8.896;2022-12-19T09:35:52;41.20;;;21.27;;
13329;SDS011;6734;48.638;8.896;2022-12-19T09:38:19;42.87;;;22.10;;
13329;SDS011;6734;48.638;8.896;2022-12-19T09:49:11;43.07;;;21.73;;
13329;SDS011;6734;48.638;8.896;2022-12-19T09:51:49;41.37;;;22.70;;
13329;SDS011;6734;48.638;8.896;2022-12-19T09:57:34;49.57;;;23.90;;
13329;SDS011;6734;48.638;8.896;2022-12-19T10:00:13;46.87;;;24.70;;
13329;SDS011;6734;48.638;8.896;2022-12-19T10:02:47;43.77;;;22.30;;
13329;SDS011;6734;48.638;8.896;2022-12-19T10:08:17;48.47;;;23.33;;
13329;SDS011;6734;48.638;8.896;2022-12-19T10:16:35;48.90;;;24.37;;
13329;SDS011;6734;48.638;8.896;2022-12-19T10:25:07;46.20;;;23.10;;
13329;SDS011;6734;48.638;8.896;2022-12-19T10:30:18;49.50;;;24.43;;
13329;SDS011;6734;48.638;8.896;2022-12-19T10:35:43;41.93;;;19.37;;
13329;SDS011;6734;48.638;8.896;2022-12-19T10:40:40;42.97;;;21.97;;
13329;SDS011;6734;48.638;8.896;2022-12-19T10:43:15;40.47;;;21.10;;
13329;SDS011;6734;48.638;8.896;2022-12-19T10:45:57;40.60;;;19.87;;
13329;SDS011;6734;48.638;8.896;2022-12-19T10:48:26;38.70;;;21.07;;
13329;SDS011;6734;48.638;8.896;2022-12-19T10:50:52;40.63;;;21.30;;
13329;SDS011;6734;48.638;8.896;2022-12-19T10:53:24;33.27;;;19.47;;
13329;SDS011;6734;48.638;8.896;2022-12-19T10:55:52;44.83;;;19.73;;
13329;SDS011;6734;48.638;8.896;2022-12-19T11:01:04;36.77;;;19.93;;
13329;SDS011;6734;48.638;8.896;2022-12-19T11:03:41;35.33;;;20.20;;
13329;SDS011;6734;48.638;8.896;2022-12-19T11:09:15;39.00;;;19.77;;
13329;SDS011;6734;48.638;8.896;2022-12-19T11:11:42;36.73;;;19.27;;
13329;SDS011;6734;48.638;8.896;2022-12-19T11:14:26;32.97;;;18.90;;
13329;SDS011;6734;48.638;8.896;2022-12-19T11:16:53;32.67;;;17.53;;
13329;SDS011;6734;48.638;8.896;2022-12-19T11:19:20;39.57;;;20.53;;
13329;SDS011;6734;48.638;8.896;2022-12-19T11:22:03;38.73;;;19.87;;
13329;SDS011;6734;48.638;8.896;2022-12-19T11:24:38;36.10;;;19.43;;
13329;SDS011;6734;48.638;8.896;2022-12-19T11:27:28;33.07;;;18.53;;
13329;SDS011;6734;48.638;8.896;2022-12-19T11:30:05;34.77;;;18.17;;
13329;SDS011;6734;48.638;8.896;2022-12-19T11:32:37;38.00;;;20.90;;
13329;SDS011;6734;48.638;8.896;2022-12-19T11:37:59;28.10;;;16.67;;
13329;SDS011;6734;48.638;8.896;2022-12-19T11:43:14;23.87;;;15.00;;
13329;SDS011;6734;48.638;8.896;2022-12-19T11:46:44;27.67;;;17.10;;
13329;SDS011;6734;48.638;8.896;2022-12-19T11:56:15;28.10;;;15.40;;
13329;SDS011;6734;48.638;8.896;2022-12-19T11:58:41;25.00;;;15.37;;
13329;SDS011;6734;48.638;8.896;2022-12-19T12:03:57;26.37;;;15.73;;
13329;SDS011;6734;48.638;8.896;2022-12-19T12:06:27;30.13;;;17.63;;
13329;SDS011;6734;48.638;8.896;2022-12-19T12:09:01;28.43;;;16.13;;
13329;SDS011;6734;48.638;8.896;2022-12-19T12:17:23;22.57;;;13.00;;
13329;SDS011;6734;48.638;8.896;2022-12-19T12:22:36;23.23;;;12.93;;
13329;SDS011;6734;48.638;8.896;2022-12-19T12:28:03;28.50;;;15.80;;
13329;SDS011;6734;48.638;8.896;2022-12-19T12:30:41;26.00;;;15.80;;
13329;SDS011;6734;48.638;8.896;2022-12-19T12:33:20;24.47;;;15.00;;
13329;SDS011;6734;48.638;8.896;2022-12-19T12:35:50;26.30;;;15.33;;
13329;SDS011;6734;48.638;8.896;2022-12-19T12:41:14;26.50;;;14.93;;
13329;SDS011;6734;48.638;8.896;2022-12-19T12:46:14;22.27;;;13.23;;
13329;SDS011;6734;48.638;8.896;2022-12-19T12:48:46;26.60;;;15.17;;
13329;SDS011;6734;48.638;8.896;2022-12-19T12:51:14;23.60;;;15.37;;
13329;SDS011;6734;48.638;8.896;2022-12-19T12:53:42;23.60;;;15.47;;
13329;SDS011;6734;48.638;8.896;2022-12-19T12:56:10;25.50;;;15.47;;
13329;SDS011;6734;48.638;8.896;2022-12-19T13:01:06;28.97;;;17.23;;
13329;SDS011;6734;48.638;8.896;2022-12-19T13:03:33;26.87;;;16.20;;
13329;SDS011;6734;48.638;8.896;2022-12-19T13:06:04;26.03;;;16.17;;
13329;SDS011;6734;48.638;8.896;2022-12-19T13:14:03;26.20;;;16.10;;
13329;SDS011;6734;48.638;8.896;2022-12-19T13:16:51;31.30;;;19.40;;
13329;SDS011;6734;48.638;8.896;2022-12-19T13:19:22;29.53;;;17.77;;
13329;SDS011;6734;48.638;8.896;2022-12-19T13:24:38;32.67;;;18.50;;
13329;SDS011;6734;48.638;8.896;2022-12-19T13:32:24;34.33;;;18.13;;
13329;SDS011;6734;48.638;8.896;2022-12-19T13:35:28;29.20;;;16.80;;
13329;SDS011;6734;48.638;8.896;2022-12-19T13:40:53;29.07;;;16.37;;
13329;SDS011;6734;48.638;8.896;2022-12-19T13:46:23;27.43;;;15.40;;
13329;SDS011;6734;48.638;8.896;2022-12-19T13:49:01;26.03;;;15.40;;
13329;SDS011;6734;48.638;8.896;2022-12-19T13:51:51;24.00;;;14.27;;
13329;SDS011;6734;48.638;8.896;2022-12-19T13:54:26;26.87;;;15.10;;
13329;SDS011;6734;48.638;8.896;2022-12-19T13:56:54;27.70;;;15.60;;
13329;SDS011;6734;48.638;8.896;2022-12-19T13:59:21;25.17;;;15.47;;
13329;SDS011;6734;48.638;8.896;2022-12-19T14:01:51;27.27;;;15.20;;
13329;SDS011;6734;48.638;8.896;2022-12-19T14:04:25;29.53;;;16.17;;
13329;SDS011;6734;48.638;8.896;2022-12-19T14:07:01;41.20;;;25.03;;
13329;SDS011;6734;48.638;8.896;2022-12-19T14:09:36;27.40;;;16.43;;
13329;SDS011;6734;48.638;8.896;2022-12-19T14:12:04;26.30;;;15.43;;
13329;SDS011;6734;48.638;8.896;2022-12-19T14:14:56;30.47;;;17.90;;
13329;SDS011;6734;48.638;8.896;2022-12-19T14:17:39;29.80;;;16.27;;
13329;SDS011;6734;48.638;8.896;2022-12-19T14:20:16;30.20;;;17.07;;
13329;SDS011;6734;48.638;8.896;2022-12-19T14:22:42;28.70;;;17.57;;
13329;SDS011;6734;48.638;8.896;2022-12-19T14:25:08;31.77;;;18.17;;
13329;SDS011;6734;48.638;8.896;2022-12-19T14:27:40;29.60;;;16.40;;
13329;SDS011;6734;48.638;8.896;2022-12-19T14:30:21;26.60;;;15.77;;
13329;SDS011;6734;48.638;8.896;2022-12-19T14:32:52;30.43;;;16.63;;
13329;SDS011;6734;48.638;8.896;2022-12-19T14:35:23;27.30;;;15.97;;
13329;SDS011;6734;48.638;8.896;2022-12-19T14:37:59;25.43;;;14.73;;
13329;SDS011;6734;48.638;8.896;2022-12-19T14:40:28;24.33;;;14.30;;
13329;SDS011;6734;48.638;8.896;2022-12-19T14:43:00;23.03;;;13.43;;
13329;SDS011;6734;48.638;8.896;2022-12-19T14:45:45;26.53;;;14.40;;
13329;SDS011;6734;48.638;8.896;2022-12-19T14:48:28;24.63;;;14.27;;
13329;SDS011;6734;48.638;8.896;2022-12-19T14:53:34;22.87;;;12.97;;
13329;SDS011;6734;48.638;8.896;2022-12-19T14:56:22;24.83;;;13.63;;
13329;SDS011;6734;48.638;8.896;2022-12-19T14:58:54;23.83;;;13.00;;
13329;SDS011;6734;48.638;8.896;2022-12-19T15:03:50;23.67;;;13.43;;
13329;SDS011;6734;48.638;8.896;2022-12-19T15:06:17;25.47;;;15.57;;
13329;SDS011;6734;48.638;8.896;2022-12-19T15:08:43;34.30;;;18.47;;
13329;SDS011;6734;48.638;8.896;2022-12-19T15:11:20;25.03;;;13.80;;
13329;SDS011;6734;48.638;8.896;2022-12-19T15:14:11;24.00;;;14.33;;
13329;SDS011;6734;48.638;8.896;2022-12-19T15:16:36;24.83;;;14.50;;
13329;SDS011;6734;48.638;8.896;2022-12-19T15:19:02;26.97;;;14.27;;
13329;SDS011;6734;48.638;8.896;2022-12-19T15:21:35;27.20;;;14.97;;
13329;SDS011;6734;48.638;8.896;2022-12-19T15:24:01;25.67;;;14.70;;
13329;SDS011;6734;48.638;8.896;2022-12-19T15:26:28;24.53;;;14.07;;
13329;SDS011;6734;48.638;8.896;2022-12-19T15:28:57;25.33;;;15.23;;
13329;SDS011;6734;48.638;8.896;2022-12-19T15:33:58;33.03;;;18.33;;
13329;SDS011;6734;48.638;8.896;2022-12-19T15:36:41;30.63;;;18.33;;
13329;SDS011;6734;48.638;8.896;2022-12-19T15:39:07;30.60;;;16.60;;
13329;SDS011;6734;48.638;8.896;2022-12-19T15:41:33;28.63;;;16.93;;
13329;SDS011;6734;48.638;8.896;2022-12-19T15:43:59;25.50;;;15.27;;
13329;SDS011;6734;48.638;8.896;2022-12-19T15:46:29;28.00;;;14.97;;
13329;SDS011;6734;48.638;8.896;2022-12-19T15:48:56;30.93;;;17.47;;
13329;SDS011;6734;48.638;8.896;2022-12-19T15:51:21;27.03;;;16.17;;
13329;SDS011;6734;48.638;8.896;2022-12-19T15:53:47;26.53;;;15.30;;
13329;SDS011;6734;48.638;8.896;2022-12-19T15:56:28;35.07;;;17.43;;
13329;SDS011;6734;48.638;8.896;2022-12-19T15:58:57;29.93;;;16.93;;
13329;SDS011;6734;48.638;8.896;2022-12-19T16:01:25;29.47;;;15.33;;
13329;SDS011;6734;48.638;8.896;2022-12-19T16:03:52;28.60;;;16.43;;
13329;SDS011;6734;48.638;8.896;2022-12-19T16:06:19;29.20;;;18.43;;
13329;SDS011;6734;48.638;8.896;2022-12-19T16:08:45;34.73;;;20.80;;
13329;SDS011;6734;48.638;8.896;2022-12-19T16:11:21;31.90;;;19.97;;
13329;SDS011;6734;48.638;8.896;2022-12-19T16:13:50;31.63;;;18.80;;
13329;SDS011;6734;48.638;8.896;2022-12-19T16:16:20;26.27;;;16.33;;
13329;SDS011;6734;48.638;8.896;2022-12-19T16:18:46;26.23;;;15.40;;
13329;SDS011;6734;48.638;8.896;2022-12-19T16:21:22;31.20;;;18.30;;
13329;SDS011;6734;48.638;8.896;2022-12-19T16:23:49;31.40;;;16.90;;
13329;SDS011;6734;48.638;8.896;2022-12-19T16:26:50;27.40;;;14.83;;
13329;SDS011;6734;48.638;8.896;2022-12-19T16:29:16;25.47;;;15.70;;
13329;SDS011;6734;48.638;8.896;2022-12-19T16:31:53;29.57;;;15.90;;
13329;SDS011;6734;48.638;8.896;2022-12-19T16:34:20;24.87;;;14.03;;
13329;SDS011;6734;48.638;8.896;2022-12-19T16:36:47;24.80;;;13.33;;
13329;SDS011;6734;48.638;8.896;2022-12-19T16:39:13;26.63;;;15.73;;
13329;SDS011;6734;48.638;8.896;2022-12-19T16:41:40;27.97;;;14.93;;
13329;SDS011;6734;48.638;8.896;2022-12-19T16:44:24;24.10;;;14.90;;
13329;SDS011;6734;48.638;8.896;2022-12-19T16:46:50;21.83;;;13.00;;
13329;SDS011;6734;48.638;8.896;2022-12-19T16:49:20;27.50;;;14.93;;
13329;SDS011;6734;48.638;8.896;2022-12-19T16:51:49;27.07;;;16.00;;
13329;SDS011;6734;48.638;8.896;2022-12-19T16:54:15;26.40;;;15.80;;
13329;SDS011;6734;48.638;8.896;2022-12-19T16:56:45;27.07;;;15.23;;
13329;SDS011;6734;48.638;8.896;2022-12-19T17:01:44;23.07;;;14.33;;
13329;SDS011;6734;48.638;8.896;2022-12-19T17:04:11;30.13;;;17.90;;
13329;SDS011;6734;48.638;8.896;2022-12-19T17:06:37;26.87;;;16.73;;
13329;SDS011;6734;48.638;8.896;2022-12-19T17:09:05;30.07;;;16.53;;
13329;SDS011;6734;48.638;8.896;2022-12-19T17:11:30;26.77;;;16.13;;
13329;SDS011;6734;48.638;8.896;2022-12-19T17:14:09;33.93;;;18.47;;
13329;SDS011;6734;48.638;8.896;2022-12-19T17:16:39;29.07;;;17.37;;
13329;SDS011;6734;48.638;8.896;2022-12-19T17:19:04;25.57;;;14.93;;